sensor_id;sensor_type;location;lat;lon;timestamp;temperature;humidity
758;DHT22;363;48.764;9.172;2023-06-19T00:00:29;24.20;62.90
758;DHT22;363;48.764;9.172;2023-06-19T00:02:58;24.20;63.60
758;DHT22;363;48.764;9.172;2023-06-19T00:05:23;24.20;63.80
758;DHT22;363;48.764;9.172;2023-06-19T00:07:50;24.20;63.50
758;DHT22;363;48.764;9.172;2023-06-19T00:10:16;24.20;63.90
758;DHT22;363;48.764;9.172;2023-06-19T00:12:41;24.20;64.10
758;DHT22;363;48.764;9.172;2023-06-19T00:15:07;24.10;64.30
758;DHT22;363;48.764;9.172;2023-06-19T00:17:35;24.20;64.60
758;DHT22;363;48.764;9.172;2023-06-19T00:20:03;24.20;64.80
758;DHT22;363;48.764;9.172;2023-06-19T00:22:31;24.10;64.90
758;DHT22;363;48.764;9.172;2023-06-19T00:24:56;24.10;65.20
758;DHT22;363;48.764;9.172;2023-06-19T00:27:22;24.10;65.70
758;DHT22;363;48.764;9.172;2023-06-19T00:29:47;24.10;66.10
758;DHT22;363;48.764;9.172;2023-06-19T00:32:13;24.00;66.60
758;DHT22;363;48.764;9.172;2023-06-19T00:34:38;24.00;68.00
758;DHT22;363;48.764;9.172;2023-06-19T00:37:04;24.00;67.40
758;DHT22;363;48.764;9.172;2023-06-19T00:39:30;23.90;67.50
758;DHT22;363;48.764;9.172;2023-06-19T00:41:56;23.90;67.60
758;DHT22;363;48.764;9.172;2023-06-19T00:44:22;23.90;67.80
758;DHT22;363;48.764;9.172;2023-06-19T00:46:51;23.80;68.00
758;DHT22;363;48.764;9.172;2023-06-19T00:49:20;23.80;68.20
758;DHT22;363;48.764;9.172;2023-06-19T00:51:47;23.80;68.40
758;DHT22;363;48.764;9.172;2023-06-19T00:54:12;23.70;68.50
758;DHT22;363;48.764;9.172;2023-06-19T00:56:38;23.70;68.70
758;DHT22;363;48.764;9.172;2023-06-19T00:59:16;23.70;68.90
758;DHT22;363;48.764;9.172;2023-06-19T01:01:45;23.70;68.70
758;DHT22;363;48.764;9.172;2023-06-19T01:04:12;23.70;69.00
758;DHT22;363;48.764;9.172;2023-06-19T01:09:16;23.70;69.80
758;DHT22;363;48.764;9.172;2023-06-19T01:11:47;23.70;70.10
758;DHT22;363;48.764;9.172;2023-06-19T01:14:33;23.60;70.20
758;DHT22;363;48.764;9.172;2023-06-19T01:17:01;23.60;70.60
758;DHT22;363;48.764;9.172;2023-06-19T01:19:27;23.60;70.60
758;DHT22;363;48.764;9.172;2023-06-19T01:21:53;23.50;70.40
758;DHT22;363;48.764;9.172;2023-06-19T01:24:19;23.50;68.40
758;DHT22;363;48.764;9.172;2023-06-19T01:26:45;23.60;67.30
758;DHT22;363;48.764;9.172;2023-06-19T01:29:12;23.70;67.10
758;DHT22;363;48.764;9.172;2023-06-19T01:31:52;23.80;67.00
758;DHT22;363;48.764;9.172;2023-06-19T01:34:20;23.80;67.00
758;DHT22;363;48.764;9.172;2023-06-19T01:36:48;23.80;66.90
758;DHT22;363;48.764;9.172;2023-06-19T01:39:16;23.80;67.00
758;DHT22;363;48.764;9.172;2023-06-19T01:41:43;23.90;66.90
758;DHT22;363;48.764;9.172;2023-06-19T01:44:09;23.80;67.00
758;DHT22;363;48.764;9.172;2023-06-19T01:46:51;23.80;67.00
758;DHT22;363;48.764;9.172;2023-06-19T01:49:17;23.10;66.40
758;DHT22;363;48.764;9.172;2023-06-19T01:51:43;23.80;67.60
758;DHT22;363;48.764;9.172;2023-06-19T01:54:09;23.80;68.10
758;DHT22;363;48.764;9.172;2023-06-19T01:56:35;23.80;69.00
758;DHT22;363;48.764;9.172;2023-06-19T01:59:01;23.80;69.60
758;DHT22;363;48.764;9.172;2023-06-19T02:01:26;23.70;70.30
758;DHT22;363;48.764;9.172;2023-06-19T02:03:52;23.70;70.80
758;DHT22;363;48.764;9.172;2023-06-19T02:06:17;23.60;71.30
758;DHT22;363;48.764;9.172;2023-06-19T02:08:43;23.60;71.70
758;DHT22;363;48.764;9.172;2023-06-19T02:11:08;23.60;72.00
758;DHT22;363;48.764;9.172;2023-06-19T02:13:34;23.60;72.40
758;DHT22;363;48.764;9.172;2023-06-19T02:16:00;23.50;72.80
758;DHT22;363;48.764;9.172;2023-06-19T02:18:25;23.60;72.90
758;DHT22;363;48.764;9.172;2023-06-19T02:20:51;23.60;72.80
758;DHT22;363;48.764;9.172;2023-06-19T02:23:16;23.60;72.90
758;DHT22;363;48.764;9.172;2023-06-19T02:25:42;23.60;72.90
758;DHT22;363;48.764;9.172;2023-06-19T02:30:34;23.60;73.20
758;DHT22;363;48.764;9.172;2023-06-19T02:32:59;23.90;75.30
758;DHT22;363;48.764;9.172;2023-06-19T02:37:51;23.50;74.60
758;DHT22;363;48.764;9.172;2023-06-19T02:40:16;24.40;77.90
758;DHT22;363;48.764;9.172;2023-06-19T02:42:42;25.40;78.60
758;DHT22;363;48.764;9.172;2023-06-19T02:45:08;23.60;76.30
758;DHT22;363;48.764;9.172;2023-06-19T02:47:34;23.60;76.50
758;DHT22;363;48.764;9.172;2023-06-19T02:50:00;25.00;78.30
758;DHT22;363;48.764;9.172;2023-06-19T02:52:26;24.00;77.20
758;DHT22;363;48.764;9.172;2023-06-19T02:54:52;23.70;76.80
758;DHT22;363;48.764;9.172;2023-06-19T02:57:18;23.70;76.80
758;DHT22;363;48.764;9.172;2023-06-19T02:59:44;23.80;76.80
758;DHT22;363;48.764;9.172;2023-06-19T03:02:11;24.20;77.90
758;DHT22;363;48.764;9.172;2023-06-19T03:07:02;23.70;76.40
758;DHT22;363;48.764;9.172;2023-06-19T03:14:20;23.70;77.40
758;DHT22;363;48.764;9.172;2023-06-19T03:16:46;24.90;79.70
758;DHT22;363;48.764;9.172;2023-06-19T03:19:12;25.10;80.00
758;DHT22;363;48.764;9.172;2023-06-19T03:21:38;23.70;78.60
758;DHT22;363;48.764;9.172;2023-06-19T03:24:03;23.80;79.00
758;DHT22;363;48.764;9.172;2023-06-19T03:26:29;23.60;79.30
758;DHT22;363;48.764;9.172;2023-06-19T03:28:55;23.60;80.00
758;DHT22;363;48.764;9.172;2023-06-19T03:31:20;23.50;79.10
758;DHT22;363;48.764;9.172;2023-06-19T03:33:46;23.50;79.80
758;DHT22;363;48.764;9.172;2023-06-19T03:36:11;23.60;80.00
758;DHT22;363;48.764;9.172;2023-06-19T03:38:37;23.70;80.40
758;DHT22;363;48.764;9.172;2023-06-19T03:41:03;23.60;80.70
758;DHT22;363;48.764;9.172;2023-06-19T03:43:28;23.30;81.90
758;DHT22;363;48.764;9.172;2023-06-19T03:45:54;23.30;83.20
758;DHT22;363;48.764;9.172;2023-06-19T03:48:19;23.20;84.30
758;DHT22;363;48.764;9.172;2023-06-19T03:50:45;23.20;84.90
758;DHT22;363;48.764;9.172;2023-06-19T03:53:10;23.20;86.20
758;DHT22;363;48.764;9.172;2023-06-19T03:55:36;23.00;87.20
758;DHT22;363;48.764;9.172;2023-06-19T03:58:02;24.60;89.20
758;DHT22;363;48.764;9.172;2023-06-19T04:00:27;23.70;89.50
758;DHT22;363;48.764;9.172;2023-06-19T04:02:53;21.50;87.90
758;DHT22;363;48.764;9.172;2023-06-19T04:05:19;22.50;90.20
758;DHT22;363;48.764;9.172;2023-06-19T04:07:47;25.20;92.10
758;DHT22;363;48.764;9.172;2023-06-19T04:12:42;22.70;91.20
758;DHT22;363;48.764;9.172;2023-06-19T04:15:08;22.30;91.60
758;DHT22;363;48.764;9.172;2023-06-19T04:20:00;22.50;92.00
758;DHT22;363;48.764;9.172;2023-06-19T04:22:25;22.60;93.90
758;DHT22;363;48.764;9.172;2023-06-19T04:24:51;22.90;94.30
758;DHT22;363;48.764;9.172;2023-06-19T04:27:16;22.90;94.80
758;DHT22;363;48.764;9.172;2023-06-19T04:29:42;25.40;95.40
758;DHT22;363;48.764;9.172;2023-06-19T04:32:08;24.70;96.10
758;DHT22;363;48.764;9.172;2023-06-19T04:34:37;22.20;94.20
758;DHT22;363;48.764;9.172;2023-06-19T04:37:04;23.70;94.70
758;DHT22;363;48.764;9.172;2023-06-19T04:39:29;22.40;94.00
758;DHT22;363;48.764;9.172;2023-06-19T04:41:55;23.30;94.50
758;DHT22;363;48.764;9.172;2023-06-19T04:44:20;22.60;94.00
758;DHT22;363;48.764;9.172;2023-06-19T04:46:46;22.40;94.00
758;DHT22;363;48.764;9.172;2023-06-19T04:49:12;22.80;94.30
758;DHT22;363;48.764;9.172;2023-06-19T04:51:38;23.00;94.10
758;DHT22;363;48.764;9.172;2023-06-19T04:54:04;23.00;94.30
758;DHT22;363;48.764;9.172;2023-06-19T04:56:29;22.80;94.00
758;DHT22;363;48.764;9.172;2023-06-19T04:58:57;23.10;94.00
758;DHT22;363;48.764;9.172;2023-06-19T05:01:25;23.00;93.70
758;DHT22;363;48.764;9.172;2023-06-19T05:03:54;24.10;93.90
758;DHT22;363;48.764;9.172;2023-06-19T05:06:23;23.70;93.10
758;DHT22;363;48.764;9.172;2023-06-19T05:08:49;23.40;93.10
758;DHT22;363;48.764;9.172;2023-06-19T05:11:15;23.80;93.00
758;DHT22;363;48.764;9.172;2023-06-19T05:13:40;25.90;94.00
758;DHT22;363;48.764;9.172;2023-06-19T05:16:07;23.80;92.70
758;DHT22;363;48.764;9.172;2023-06-19T05:18:33;23.60;92.60
758;DHT22;363;48.764;9.172;2023-06-19T05:20:58;24.00;92.70
758;DHT22;363;48.764;9.172;2023-06-19T05:23:24;23.60;92.40
758;DHT22;363;48.764;9.172;2023-06-19T05:25:49;24.10;92.90
758;DHT22;363;48.764;9.172;2023-06-19T05:28:16;24.10;92.90
758;DHT22;363;48.764;9.172;2023-06-19T05:30:41;23.50;92.90
758;DHT22;363;48.764;9.172;2023-06-19T05:33:07;23.50;92.80
758;DHT22;363;48.764;9.172;2023-06-19T05:35:32;24.60;93.40
758;DHT22;363;48.764;9.172;2023-06-19T05:37:58;25.30;93.90
758;DHT22;363;48.764;9.172;2023-06-19T05:40:23;24.50;94.30
758;DHT22;363;48.764;9.172;2023-06-19T05:42:49;25.30;94.60
758;DHT22;363;48.764;9.172;2023-06-19T05:45:15;24.00;94.00
758;DHT22;363;48.764;9.172;2023-06-19T05:47:40;25.60;94.40
758;DHT22;363;48.764;9.172;2023-06-19T05:50:06;26.30;94.30
758;DHT22;363;48.764;9.172;2023-06-19T05:52:32;24.00;93.60
758;DHT22;363;48.764;9.172;2023-06-19T05:54:58;25.80;93.50
758;DHT22;363;48.764;9.172;2023-06-19T08:25:15;30.70;54.20
758;DHT22;363;48.764;9.172;2023-06-19T08:27:41;30.60;56.70
758;DHT22;363;48.764;9.172;2023-06-19T08:30:07;30.00;56.70
758;DHT22;363;48.764;9.172;2023-06-19T08:32:33;29.80;57.30
758;DHT22;363;48.764;9.172;2023-06-19T08:35:03;30.00;58.70
758;DHT22;363;48.764;9.172;2023-06-19T08:37:28;29.00;60.00
758;DHT22;363;48.764;9.172;2023-06-19T08:39:54;29.20;60.20
758;DHT22;363;48.764;9.172;2023-06-19T08:42:22;29.00;63.00
758;DHT22;363;48.764;9.172;2023-06-19T08:44:48;30.30;60.80
758;DHT22;363;48.764;9.172;2023-06-19T08:47:14;30.70;62.00
758;DHT22;363;48.764;9.172;2023-06-19T08:49:40;30.60;60.90
758;DHT22;363;48.764;9.172;2023-06-19T08:52:06;31.20;60.50
758;DHT22;363;48.764;9.172;2023-06-19T08:54:32;30.30;57.10
758;DHT22;363;48.764;9.172;2023-06-19T08:57:01;31.10;58.70
758;DHT22;363;48.764;9.172;2023-06-19T08:59:27;32.70;55.90
758;DHT22;363;48.764;9.172;2023-06-19T09:01:54;32.20;55.40
758;DHT22;363;48.764;9.172;2023-06-19T09:04:23;35.80;53.00
758;DHT22;363;48.764;9.172;2023-06-19T09:06:53;35.60;48.70
758;DHT22;363;48.764;9.172;2023-06-19T09:09:20;37.00;44.80
758;DHT22;363;48.764;9.172;2023-06-19T09:12:04;39.10;42.50
758;DHT22;363;48.764;9.172;2023-06-19T09:14:38;40.50;40.00
758;DHT22;363;48.764;9.172;2023-06-19T09:17:07;41.70;37.40
758;DHT22;363;48.764;9.172;2023-06-19T09:19:35;41.60;36.90
758;DHT22;363;48.764;9.172;2023-06-19T09:22:06;41.70;36.30
758;DHT22;363;48.764;9.172;2023-06-19T09:24:39;41.50;35.40
758;DHT22;363;48.764;9.172;2023-06-19T09:27:18;41.40;34.30
758;DHT22;363;48.764;9.172;2023-06-19T09:29:46;41.50;33.80
758;DHT22;363;48.764;9.172;2023-06-19T09:32:21;41.90;34.30
758;DHT22;363;48.764;9.172;2023-06-19T09:34:48;40.80;32.40
758;DHT22;363;48.764;9.172;2023-06-19T09:37:14;42.00;34.10
758;DHT22;363;48.764;9.172;2023-06-19T09:39:41;41.00;35.50
758;DHT22;363;48.764;9.172;2023-06-19T09:42:08;40.90;36.00
758;DHT22;363;48.764;9.172;2023-06-19T09:44:42;41.00;35.30
758;DHT22;363;48.764;9.172;2023-06-19T09:47:22;40.00;34.70
758;DHT22;363;48.764;9.172;2023-06-19T09:49:53;38.20;36.40
758;DHT22;363;48.764;9.172;2023-06-19T09:52:20;37.10;38.80
758;DHT22;363;48.764;9.172;2023-06-19T09:54:51;36.90;39.60
758;DHT22;363;48.764;9.172;2023-06-19T09:57:16;36.90;39.60
758;DHT22;363;48.764;9.172;2023-06-19T09:59:50;38.20;41.60
758;DHT22;363;48.764;9.172;2023-06-19T10:02:17;38.80;39.40
758;DHT22;363;48.764;9.172;2023-06-19T10:04:45;40.40;40.00
758;DHT22;363;48.764;9.172;2023-06-19T10:07:22;39.50;39.10
758;DHT22;363;48.764;9.172;2023-06-19T10:12:41;37.40;41.80
758;DHT22;363;48.764;9.172;2023-06-19T10:17:37;38.20;39.90
758;DHT22;363;48.764;9.172;2023-06-19T10:20:03;37.40;40.70
758;DHT22;363;48.764;9.172;2023-06-19T10:22:32;36.70;41.50
758;DHT22;363;48.764;9.172;2023-06-19T10:24:58;37.30;43.30
758;DHT22;363;48.764;9.172;2023-06-19T10:27:25;38.30;41.50
758;DHT22;363;48.764;9.172;2023-06-19T10:29:52;38.20;39.20
758;DHT22;363;48.764;9.172;2023-06-19T10:32:19;38.90;39.20
758;DHT22;363;48.764;9.172;2023-06-19T10:34:47;41.30;39.20
758;DHT22;363;48.764;9.172;2023-06-19T10:37:14;39.80;37.00
758;DHT22;363;48.764;9.172;2023-06-19T10:39:40;39.60;37.00
758;DHT22;363;48.764;9.172;2023-06-19T10:42:09;39.70;38.90
758;DHT22;363;48.764;9.172;2023-06-19T10:44:35;38.90;38.20
758;DHT22;363;48.764;9.172;2023-06-19T10:47:04;37.50;40.10
758;DHT22;363;48.764;9.172;2023-06-19T10:49:31;36.50;42.20
758;DHT22;363;48.764;9.172;2023-06-19T10:51:59;35.30;43.30
758;DHT22;363;48.764;9.172;2023-06-19T10:54:27;35.00;46.80
758;DHT22;363;48.764;9.172;2023-06-19T10:56:53;33.50;47.20
758;DHT22;363;48.764;9.172;2023-06-19T10:59:20;32.70;49.70
758;DHT22;363;48.764;9.172;2023-06-19T11:01:47;31.60;53.10
758;DHT22;363;48.764;9.172;2023-06-19T11:04:18;32.00;52.60
758;DHT22;363;48.764;9.172;2023-06-19T11:06:44;31.10;52.60
758;DHT22;363;48.764;9.172;2023-06-19T11:09:12;33.40;55.80
758;DHT22;363;48.764;9.172;2023-06-19T11:11:48;30.50;54.10
758;DHT22;363;48.764;9.172;2023-06-19T11:14:15;31.80;56.40
758;DHT22;363;48.764;9.172;2023-06-19T11:16:43;31.50;54.90
758;DHT22;363;48.764;9.172;2023-06-19T11:19:18;32.20;53.00
758;DHT22;363;48.764;9.172;2023-06-19T11:21:49;34.20;50.10
758;DHT22;363;48.764;9.172;2023-06-19T11:24:18;36.10;47.30
758;DHT22;363;48.764;9.172;2023-06-19T11:26:45;39.30;45.80
758;DHT22;363;48.764;9.172;2023-06-19T11:29:26;35.30;46.00
758;DHT22;363;48.764;9.172;2023-06-19T11:32:06;35.90;45.30
758;DHT22;363;48.764;9.172;2023-06-19T11:34:33;35.30;46.60
758;DHT22;363;48.764;9.172;2023-06-19T11:36:59;34.50;48.20
758;DHT22;363;48.764;9.172;2023-06-19T11:39:25;34.60;48.00
758;DHT22;363;48.764;9.172;2023-06-19T11:41:51;35.60;48.00
758;DHT22;363;48.764;9.172;2023-06-19T11:44:16;35.70;47.40
758;DHT22;363;48.764;9.172;2023-06-19T11:46:43;36.40;47.10
758;DHT22;363;48.764;9.172;2023-06-19T11:51:35;37.60;47.20
758;DHT22;363;48.764;9.172;2023-06-19T11:54:02;35.00;47.50
758;DHT22;363;48.764;9.172;2023-06-19T11:56:28;34.20;47.70
758;DHT22;363;48.764;9.172;2023-06-19T11:58:54;34.20;48.80
758;DHT22;363;48.764;9.172;2023-06-19T12:01:20;35.00;52.50
758;DHT22;363;48.764;9.172;2023-06-19T12:03:46;33.00;52.10
758;DHT22;363;48.764;9.172;2023-06-19T12:06:12;32.40;53.60
758;DHT22;363;48.764;9.172;2023-06-19T12:08:38;34.80;55.80
758;DHT22;363;48.764;9.172;2023-06-19T12:11:03;31.30;53.50
758;DHT22;363;48.764;9.172;2023-06-19T12:13:33;29.70;53.30
758;DHT22;363;48.764;9.172;2023-06-19T12:15:59;32.90;55.10
758;DHT22;363;48.764;9.172;2023-06-19T12:18:27;30.90;54.30
758;DHT22;363;48.764;9.172;2023-06-19T12:20:53;30.60;54.10
758;DHT22;363;48.764;9.172;2023-06-19T12:23:19;32.20;55.50
758;DHT22;363;48.764;9.172;2023-06-19T12:25:44;30.40;55.10
758;DHT22;363;48.764;9.172;2023-06-19T12:30:37;31.30;52.40
758;DHT22;363;48.764;9.172;2023-06-19T12:33:03;32.40;55.00
758;DHT22;363;48.764;9.172;2023-06-19T12:35:29;31.70;54.20
758;DHT22;363;48.764;9.172;2023-06-19T12:37:57;31.60;54.10
758;DHT22;363;48.764;9.172;2023-06-19T12:40:23;34.20;55.50
758;DHT22;363;48.764;9.172;2023-06-19T12:42:49;31.10;53.80
758;DHT22;363;48.764;9.172;2023-06-19T12:45:15;31.10;55.10
758;DHT22;363;48.764;9.172;2023-06-19T12:47:41;31.60;56.50
758;DHT22;363;48.764;9.172;2023-06-19T12:50:07;31.20;54.90
758;DHT22;363;48.764;9.172;2023-06-19T12:52:33;31.80;55.20
758;DHT22;363;48.764;9.172;2023-06-19T12:54:58;32.90;56.50
758;DHT22;363;48.764;9.172;2023-06-19T12:57:28;31.20;55.70
758;DHT22;363;48.764;9.172;2023-06-19T12:59:54;31.30;55.20
758;DHT22;363;48.764;9.172;2023-06-19T13:02:19;31.20;56.00
758;DHT22;363;48.764;9.172;2023-06-19T13:04:45;31.60;55.90
758;DHT22;363;48.764;9.172;2023-06-19T13:07:11;33.30;56.90
758;DHT22;363;48.764;9.172;2023-06-19T13:09:38;30.20;55.40
758;DHT22;363;48.764;9.172;2023-06-19T13:12:04;33.40;57.20
758;DHT22;363;48.764;9.172;2023-06-19T13:14:30;30.90;55.50
758;DHT22;363;48.764;9.172;2023-06-19T13:16:57;31.40;56.00
758;DHT22;363;48.764;9.172;2023-06-19T13:19:23;33.90;57.60
758;DHT22;363;48.764;9.172;2023-06-19T13:21:50;31.50;54.90
758;DHT22;363;48.764;9.172;2023-06-19T13:24:16;31.80;54.20
758;DHT22;363;48.764;9.172;2023-06-19T13:26:43;31.60;54.30
758;DHT22;363;48.764;9.172;2023-06-19T13:29:11;31.50;53.60
758;DHT22;363;48.764;9.172;2023-06-19T13:31:36;34.20;54.80
758;DHT22;363;48.764;9.172;2023-06-19T13:34:02;32.00;54.20
758;DHT22;363;48.764;9.172;2023-06-19T13:36:28;31.70;54.10
758;DHT22;363;48.764;9.172;2023-06-19T13:38:57;32.00;54.10
758;DHT22;363;48.764;9.172;2023-06-19T13:41:23;31.60;54.70
758;DHT22;363;48.764;9.172;2023-06-19T13:43:52;32.80;55.40
758;DHT22;363;48.764;9.172;2023-06-19T13:46:19;32.40;56.60
758;DHT22;363;48.764;9.172;2023-06-19T13:48:54;30.60;53.60
758;DHT22;363;48.764;9.172;2023-06-19T13:51:21;31.60;55.80
758;DHT22;363;48.764;9.172;2023-06-19T13:53:48;31.10;53.80
758;DHT22;363;48.764;9.172;2023-06-19T13:56:14;31.00;54.20
758;DHT22;363;48.764;9.172;2023-06-19T13:58:40;32.70;56.60
758;DHT22;363;48.764;9.172;2023-06-19T14:01:05;32.80;56.50
758;DHT22;363;48.764;9.172;2023-06-19T14:03:34;30.50;56.50
758;DHT22;363;48.764;9.172;2023-06-19T14:06:00;30.90;55.00
758;DHT22;363;48.764;9.172;2023-06-19T14:08:26;30.70;55.70
758;DHT22;363;48.764;9.172;2023-06-19T14:10:51;30.90;55.60
758;DHT22;363;48.764;9.172;2023-06-19T14:13:17;32.10;56.30
758;DHT22;363;48.764;9.172;2023-06-19T14:15:43;32.60;57.00
758;DHT22;363;48.764;9.172;2023-06-19T14:18:08;30.20;56.00
758;DHT22;363;48.764;9.172;2023-06-19T14:20:34;32.40;57.10
758;DHT22;363;48.764;9.172;2023-06-19T14:23:00;32.30;57.00
758;DHT22;363;48.764;9.172;2023-06-19T14:25:25;30.10;54.70
758;DHT22;363;48.764;9.172;2023-06-19T14:27:51;30.50;54.30
758;DHT22;363;48.764;9.172;2023-06-19T14:30:17;30.70;54.20
758;DHT22;363;48.764;9.172;2023-06-19T14:32:43;30.70;53.80
758;DHT22;363;48.764;9.172;2023-06-19T14:35:09;30.80;53.80
758;DHT22;363;48.764;9.172;2023-06-19T14:37:34;31.10;53.90
758;DHT22;363;48.764;9.172;2023-06-19T14:40:00;31.10;53.20
758;DHT22;363;48.764;9.172;2023-06-19T14:42:25;31.20;52.50
758;DHT22;363;48.764;9.172;2023-06-19T14:44:51;31.20;52.70
758;DHT22;363;48.764;9.172;2023-06-19T14:47:17;30.90;52.60
758;DHT22;363;48.764;9.172;2023-06-19T14:49:42;31.40;52.60
758;DHT22;363;48.764;9.172;2023-06-19T14:52:08;31.30;52.20
758;DHT22;363;48.764;9.172;2023-06-19T14:54:33;31.30;52.40
758;DHT22;363;48.764;9.172;2023-06-19T14:56:59;31.20;52.70
758;DHT22;363;48.764;9.172;2023-06-19T14:59:25;31.10;52.20
758;DHT22;363;48.764;9.172;2023-06-19T15:01:51;31.00;53.30
758;DHT22;363;48.764;9.172;2023-06-19T15:04:16;31.00;52.80
758;DHT22;363;48.764;9.172;2023-06-19T15:06:42;31.10;52.70
758;DHT22;363;48.764;9.172;2023-06-19T15:09:07;31.00;53.40
758;DHT22;363;48.764;9.172;2023-06-19T15:11:33;31.10;53.70
758;DHT22;363;48.764;9.172;2023-06-19T15:13:59;31.00;53.70
758;DHT22;363;48.764;9.172;2023-06-19T15:16:24;31.00;53.90
758;DHT22;363;48.764;9.172;2023-06-19T15:18:51;31.00;53.90
758;DHT22;363;48.764;9.172;2023-06-19T15:21:17;30.90;53.80
758;DHT22;363;48.764;9.172;2023-06-19T15:23:43;30.90;54.30
758;DHT22;363;48.764;9.172;2023-06-19T15:26:08;31.00;54.10
758;DHT22;363;48.764;9.172;2023-06-19T15:28:34;31.00;54.40
758;DHT22;363;48.764;9.172;2023-06-19T15:31:01;31.00;54.40
758;DHT22;363;48.764;9.172;2023-06-19T15:33:26;31.00;54.30
758;DHT22;363;48.764;9.172;2023-06-19T15:35:52;30.90;54.80
758;DHT22;363;48.764;9.172;2023-06-19T15:38:18;30.80;55.00
758;DHT22;363;48.764;9.172;2023-06-19T15:40:43;30.90;55.10
758;DHT22;363;48.764;9.172;2023-06-19T15:43:09;31.00;54.40
758;DHT22;363;48.764;9.172;2023-06-19T15:45:35;31.40;54.50
758;DHT22;363;48.764;9.172;2023-06-19T15:48:00;31.10;54.10
758;DHT22;363;48.764;9.172;2023-06-19T15:50:26;31.20;53.80
758;DHT22;363;48.764;9.172;2023-06-19T15:52:52;31.30;53.80
758;DHT22;363;48.764;9.172;2023-06-19T15:55:17;31.50;53.30
758;DHT22;363;48.764;9.172;2023-06-19T15:57:43;31.70;53.30
758;DHT22;363;48.764;9.172;2023-06-19T16:00:09;31.70;52.80
758;DHT22;363;48.764;9.172;2023-06-19T16:02:36;31.80;52.70
758;DHT22;363;48.764;9.172;2023-06-19T16:05:03;31.70;52.30
758;DHT22;363;48.764;9.172;2023-06-19T16:07:28;31.50;52.60
758;DHT22;363;48.764;9.172;2023-06-19T16:09:54;31.50;53.00
758;DHT22;363;48.764;9.172;2023-06-19T16:12:19;31.40;52.80
758;DHT22;363;48.764;9.172;2023-06-19T16:14:45;31.20;53.50
758;DHT22;363;48.764;9.172;2023-06-19T16:17:11;31.20;53.60
758;DHT22;363;48.764;9.172;2023-06-19T16:19:36;31.20;53.30
758;DHT22;363;48.764;9.172;2023-06-19T16:22:02;31.10;53.40
758;DHT22;363;48.764;9.172;2023-06-19T16:24:28;31.10;53.80
758;DHT22;363;48.764;9.172;2023-06-19T16:26:54;31.10;54.00
758;DHT22;363;48.764;9.172;2023-06-19T16:29:21;31.10;53.90
758;DHT22;363;48.764;9.172;2023-06-19T16:31:46;31.00;54.00
758;DHT22;363;48.764;9.172;2023-06-19T16:34:13;30.90;54.90
758;DHT22;363;48.764;9.172;2023-06-19T16:36:38;30.70;56.40
758;DHT22;363;48.764;9.172;2023-06-19T16:39:05;30.60;57.00
758;DHT22;363;48.764;9.172;2023-06-19T16:41:30;30.30;58.20
758;DHT22;363;48.764;9.172;2023-06-19T16:43:56;30.20;58.40
758;DHT22;363;48.764;9.172;2023-06-19T16:46:22;30.30;58.40
758;DHT22;363;48.764;9.172;2023-06-19T16:48:47;30.30;58.50
758;DHT22;363;48.764;9.172;2023-06-19T16:51:13;30.40;58.40
758;DHT22;363;48.764;9.172;2023-06-19T16:53:38;30.20;58.50
758;DHT22;363;48.764;9.172;2023-06-19T16:56:04;30.30;58.80
758;DHT22;363;48.764;9.172;2023-06-19T16:58:30;30.20;58.70
758;DHT22;363;48.764;9.172;2023-06-19T17:00:55;30.20;58.60
758;DHT22;363;48.764;9.172;2023-06-19T17:03:21;29.00;58.60
758;DHT22;363;48.764;9.172;2023-06-19T17:05:47;29.90;59.40
758;DHT22;363;48.764;9.172;2023-06-19T17:08:13;29.70;59.70
758;DHT22;363;48.764;9.172;2023-06-19T17:10:38;29.70;59.80
758;DHT22;363;48.764;9.172;2023-06-19T17:13:04;29.70;60.40
758;DHT22;363;48.764;9.172;2023-06-19T17:15:30;29.60;61.40
758;DHT22;363;48.764;9.172;2023-06-19T17:18:00;29.50;62.30
758;DHT22;363;48.764;9.172;2023-06-19T17:20:26;29.40;64.30
758;DHT22;363;48.764;9.172;2023-06-19T17:22:52;29.40;65.10
758;DHT22;363;48.764;9.172;2023-06-19T17:25:17;29.30;65.20
758;DHT22;363;48.764;9.172;2023-06-19T17:27:43;29.30;65.60
758;DHT22;363;48.764;9.172;2023-06-19T17:30:10;29.20;66.40
758;DHT22;363;48.764;9.172;2023-06-19T17:32:36;29.10;66.40
758;DHT22;363;48.764;9.172;2023-06-19T17:35:02;28.90;66.20
758;DHT22;363;48.764;9.172;2023-06-19T17:37:30;28.90;66.70
758;DHT22;363;48.764;9.172;2023-06-19T17:39:56;28.80;66.80
758;DHT22;363;48.764;9.172;2023-06-19T17:42:22;28.70;66.70
758;DHT22;363;48.764;9.172;2023-06-19T17:44:48;28.70;67.50
758;DHT22;363;48.764;9.172;2023-06-19T17:47:13;28.40;68.20
758;DHT22;363;48.764;9.172;2023-06-19T17:49:41;28.30;69.30
758;DHT22;363;48.764;9.172;2023-06-19T17:52:07;28.30;69.50
758;DHT22;363;48.764;9.172;2023-06-19T17:54:32;28.30;69.70
758;DHT22;363;48.764;9.172;2023-06-19T17:56:58;28.00;69.80
758;DHT22;363;48.764;9.172;2023-06-19T17:59:23;28.10;70.90
758;DHT22;363;48.764;9.172;2023-06-19T18:01:49;28.00;71.70
758;DHT22;363;48.764;9.172;2023-06-19T18:04:15;28.00;70.70
758;DHT22;363;48.764;9.172;2023-06-19T18:06:41;28.10;71.40
758;DHT22;363;48.764;9.172;2023-06-19T18:09:06;28.10;71.00
758;DHT22;363;48.764;9.172;2023-06-19T18:11:33;28.10;71.30
758;DHT22;363;48.764;9.172;2023-06-19T18:14:00;28.10;70.50
758;DHT22;363;48.764;9.172;2023-06-19T18:16:26;28.10;70.60
758;DHT22;363;48.764;9.172;2023-06-19T18:18:54;28.10;70.90
758;DHT22;363;48.764;9.172;2023-06-19T18:21:20;28.20;70.90
758;DHT22;363;48.764;9.172;2023-06-19T18:23:45;28.20;70.00
758;DHT22;363;48.764;9.172;2023-06-19T18:26:11;28.30;69.20
758;DHT22;363;48.764;9.172;2023-06-19T18:28:37;28.20;69.10
758;DHT22;363;48.764;9.172;2023-06-19T18:31:02;28.20;68.90
758;DHT22;363;48.764;9.172;2023-06-19T18:33:28;28.20;68.80
758;DHT22;363;48.764;9.172;2023-06-19T18:35:54;28.20;68.70
758;DHT22;363;48.764;9.172;2023-06-19T18:38:19;28.10;68.80
758;DHT22;363;48.764;9.172;2023-06-19T18:40:45;28.00;69.30
758;DHT22;363;48.764;9.172;2023-06-19T18:43:11;27.90;69.70
758;DHT22;363;48.764;9.172;2023-06-19T18:45:37;27.80;70.10
758;DHT22;363;48.764;9.172;2023-06-19T18:48:03;27.80;70.50
758;DHT22;363;48.764;9.172;2023-06-19T18:50:28;27.70;70.40
758;DHT22;363;48.764;9.172;2023-06-19T18:52:54;27.70;71.10
758;DHT22;363;48.764;9.172;2023-06-19T18:55:22;27.50;71.60
758;DHT22;363;48.764;9.172;2023-06-19T18:57:48;27.40;72.30
758;DHT22;363;48.764;9.172;2023-06-19T19:00:17;27.40;73.00
758;DHT22;363;48.764;9.172;2023-06-19T19:02:43;27.30;73.40
758;DHT22;363;48.764;9.172;2023-06-19T19:05:09;27.10;74.00
758;DHT22;363;48.764;9.172;2023-06-19T19:07:35;27.00;75.00
758;DHT22;363;48.764;9.172;2023-06-19T19:10:01;27.00;75.10
758;DHT22;363;48.764;9.172;2023-06-19T19:12:26;27.00;75.40
758;DHT22;363;48.764;9.172;2023-06-19T19:14:52;27.00;76.20
758;DHT22;363;48.764;9.172;2023-06-19T19:17:18;26.90;76.30
758;DHT22;363;48.764;9.172;2023-06-19T19:19:43;26.80;76.70
758;DHT22;363;48.764;9.172;2023-06-19T19:22:09;26.80;77.40
758;DHT22;363;48.764;9.172;2023-06-19T19:24:35;26.70;77.70
758;DHT22;363;48.764;9.172;2023-06-19T19:27:00;26.60;78.20